Time;durP1;ratioP1;P1;durP2;ratioP2;P2;SDS_P1;SDS_P2;PMS_P1;PMS_P2;Temp;Humidity;BMP_temperature;BMP_pressure;BME280_temperature;BME280_humidity;BME280_pressure;Samples;Min_cycle;Max_cycle;Signal;HPM_P1;HPM_P2
2022/07/20 00:01:04;;;;;;;5.88;3.42;;;;;;;;;;4984653;28;20050;-64
2022/07/20 00:03:30;;;;;;;4.55;3.45;;;;;;;;;;5009948;28;20046;-64
2022/07/20 00:05:57;;;;;;;6.63;3.15;;;;;;;;;;5009139;28;20059;-64
2022/07/20 00:11:20;;;;;;;6.28;3.70;;;;;;;;;;5008119;28;20050;-64
2022/07/20 00:14:06;;;;;;;5.60;3.40;;;;;;;;;;5004079;28;20045;-63
2022/07/20 00:16:33;;;;;;;9.15;3.50;;;;;;;;;;5009717;28;20169;-64
2022/07/20 00:18:59;;;;;;;8.60;3.45;;;;;;;;;;4990947;28;20081;-64
2022/07/20 00:21:25;;;;;;;6.65;3.70;;;;;;;;;;5001162;28;20042;-63
2022/07/20 00:23:51;;;;;;;6.05;3.58;;;;;;;;;;5012030;28;20407;-63
2022/07/20 00:26:17;;;;;;;6.75;3.92;;;;;;;;;;4995608;28;20038;-64
2022/07/20 00:28:44;;;;;;;8.23;3.75;;;;;;;;;;4989171;28;20042;-64
2022/07/20 00:31:10;;;;;;;5.50;3.72;;;;;;;;;;5008861;28;20038;-64
2022/07/20 00:33:36;;;;;;;7.20;3.97;;;;;;;;;;5011855;28;20038;-64
2022/07/20 00:36:02;;;;;;;5.35;3.58;;;;;;;;;;5006755;28;20046;-64
2022/07/20 00:38:28;;;;;;;7.18;3.78;;;;;;;;;;4984909;28;20052;-64
2022/07/20 00:40:54;;;;;;;5.15;3.55;;;;;;;;;;4984461;28;20046;-64
2022/07/20 00:43:20;;;;;;;8.50;4.10;;;;;;;;;;5003320;28;20029;-64
2022/07/20 00:45:46;;;;;;;6.85;4.15;;;;;;;;;;5005796;28;20401;-65
2022/07/20 00:48:13;;;;;;;8.38;3.97;;;;;;;;;;5005796;28;20046;-65
2022/07/20 00:50:39;;;;;;;8.65;3.85;;;;;;;;;;5007804;28;20037;-64
2022/07/20 00:53:06;;;;;;;5.50;3.72;;;;;;;;;;5005088;28;20066;-64
2022/07/20 00:55:32;;;;;;;7.85;3.97;;;;;;;;;;5007516;28;20034;-64
2022/07/20 00:57:58;;;;;;;8.70;3.78;;;;;;;;;;5008221;28;20050;-64
2022/07/20 01:00:24;;;;;;;5.65;3.65;;;;;;;;;;5008523;28;20042;-64
2022/07/20 01:02:50;;;;;;;8.00;3.70;;;;;;;;;;5010036;28;20045;-64
2022/07/20 01:05:16;;;;;;;8.98;4.15;;;;;;;;;;5004901;28;20034;-64
2022/07/20 01:07:46;;;;;;;4.70;3.80;;;;;;;;;;5009354;28;20041;-64
2022/07/20 01:10:13;;;;;;;5.10;3.70;;;;;;;;;;5005089;28;20038;-64
2022/07/20 01:12:39;;;;;;;7.60;3.92;;;;;;;;;;5011895;28;20030;-64
2022/07/20 01:15:06;;;;;;;8.02;4.35;;;;;;;;;;5012568;28;20040;-64
2022/07/20 01:17:32;;;;;;;5.53;3.55;;;;;;;;;;5009620;28;20038;-64
2022/07/20 01:19:58;;;;;;;4.70;3.80;;;;;;;;;;5011074;28;20056;-64
2022/07/20 01:22:24;;;;;;;6.55;3.85;;;;;;;;;;5008804;28;20117;-64
2022/07/20 01:24:50;;;;;;;8.10;4.18;;;;;;;;;;5010026;28;20117;-64
2022/07/20 01:27:16;;;;;;;7.18;4.00;;;;;;;;;;5006929;28;20500;-64
2022/07/20 01:29:42;;;;;;;8.75;3.65;;;;;;;;;;5008194;28;20048;-64
2022/07/20 01:32:08;;;;;;;4.50;3.92;;;;;;;;;;5011726;28;20053;-64
2022/07/20 01:34:34;;;;;;;7.75;3.70;;;;;;;;;;5010878;28;20400;-64
2022/07/20 01:37:00;;;;;;;6.60;4.05;;;;;;;;;;5005052;28;20084;-64
2022/07/20 01:39:26;;;;;;;6.60;4.28;;;;;;;;;;5009624;28;20504;-64
2022/07/20 01:41:53;;;;;;;4.53;3.55;;;;;;;;;;5010770;28;20562;-64
2022/07/20 01:44:22;;;;;;;6.78;3.97;;;;;;;;;;5008779;28;20041;-64
2022/07/20 01:46:49;;;;;;;6.40;4.25;;;;;;;;;;5002652;28;20037;-64
2022/07/20 01:49:15;;;;;;;6.43;3.72;;;;;;;;;;5011170;28;20121;-64
2022/07/20 01:51:42;;;;;;;5.57;3.72;;;;;;;;;;5010238;28;20042;-64
2022/07/20 01:54:08;;;;;;;8.27;4.20;;;;;;;;;;5008645;28;20084;-64
2022/07/20 01:56:34;;;;;;;6.25;4.00;;;;;;;;;;5006776;28;20034;-64
2022/07/20 01:59:00;;;;;;;5.93;3.75;;;;;;;;;;4979895;28;20056;-64
2022/07/20 02:01:26;;;;;;;6.63;3.70;;;;;;;;;;4986248;28;20138;-64
2022/07/20 02:03:52;;;;;;;7.57;3.67;;;;;;;;;;4986814;28;20069;-64
2022/07/20 02:06:18;;;;;;;5.72;3.60;;;;;;;;;;4974457;28;20045;-64
2022/07/20 02:08:44;;;;;;;5.53;3.85;;;;;;;;;;5008178;28;20100;-64
2022/07/20 02:11:10;;;;;;;6.95;4.25;;;;;;;;;;4992813;28;20380;-64
2022/07/20 02:13:37;;;;;;;6.30;3.88;;;;;;;;;;5010718;28;20407;-64
2022/07/20 02:16:16;;;;;;;7.53;3.92;;;;;;;;;;5007078;28;20100;-64
2022/07/20 02:18:42;;;;;;;7.68;3.80;;;;;;;;;;5004078;28;20053;-64
2022/07/20 02:21:08;;;;;;;7.63;4.03;;;;;;;;;;5009258;28;20475;-64
2022/07/20 02:23:34;;;;;;;5.10;4.25;;;;;;;;;;5009262;28;20440;-64
2022/07/20 02:26:00;;;;;;;6.55;3.78;;;;;;;;;;4995836;28;20116;-64
2022/07/20 02:28:26;;;;;;;5.72;4.03;;;;;;;;;;5009469;28;20495;-64
2022/07/20 02:30:52;;;;;;;8.00;4.05;;;;;;;;;;5032318;22;20055;-64
2022/07/20 02:33:18;;;;;;;7.43;3.80;;;;;;;;;;5050396;28;20482;-64
2022/07/20 02:35:44;;;;;;;10.38;4.40;;;;;;;;;;5025528;28;20128;-63
2022/07/20 02:38:10;;;;;;;8.13;4.00;;;;;;;;;;5049975;28;20051;-64
2022/07/20 02:40:36;;;;;;;5.03;3.95;;;;;;;;;;5040483;28;20615;-64
2022/07/20 02:43:02;;;;;;;8.30;4.05;;;;;;;;;;5048327;28;20085;-64
2022/07/20 02:45:28;;;;;;;5.60;4.03;;;;;;;;;;5030570;28;20094;-64
2022/07/20 02:47:58;;;;;;;7.13;4.00;;;;;;;;;;5046922;28;20041;-64
2022/07/20 02:50:24;;;;;;;9.07;4.15;;;;;;;;;;5040287;28;20045;-64
2022/07/20 02:52:50;;;;;;;5.90;4.53;;;;;;;;;;5025600;28;20037;-64
2022/07/20 02:55:16;;;;;;;4.97;4.35;;;;;;;;;;5049689;28;20037;-64
2022/07/20 02:57:42;;;;;;;7.70;4.80;;;;;;;;;;5048370;28;20398;-64
2022/07/20 03:00:10;;;;;;;6.07;4.22;;;;;;;;;;5043868;28;20036;-64
2022/07/20 03:02:36;;;;;;;10.68;4.72;;;;;;;;;;5042178;28;20037;-64
2022/07/20 03:05:02;;;;;;;5.68;4.43;;;;;;;;;;5050127;28;20124;-64
2022/07/20 03:07:28;;;;;;;5.90;4.35;;;;;;;;;;5021091;28;20121;-64
2022/07/20 03:09:54;;;;;;;6.30;4.35;;;;;;;;;;5043097;28;20033;-64
2022/07/20 03:12:20;;;;;;;8.60;4.93;;;;;;;;;;5048514;28;20167;-64
2022/07/20 03:14:46;;;;;;;6.90;4.55;;;;;;;;;;5022779;28;20521;-64
2022/07/20 03:17:12;;;;;;;6.18;4.40;;;;;;;;;;5038148;28;20040;-64
2022/07/20 03:19:38;;;;;;;8.20;4.57;;;;;;;;;;5046531;28;20037;-64
2022/07/20 03:22:04;;;;;;;5.68;4.57;;;;;;;;;;5029667;28;20033;-64
2022/07/20 03:24:30;;;;;;;5.38;4.25;;;;;;;;;;5045843;28;20047;-64
2022/07/20 03:26:56;;;;;;;8.20;4.93;;;;;;;;;;5047324;28;20495;-64
2022/07/20 03:29:22;;;;;;;7.43;4.88;;;;;;;;;;5041972;28;20052;-64
2022/07/20 03:31:48;;;;;;;8.40;5.00;;;;;;;;;;5049582;28;20041;-64
2022/07/20 03:34:14;;;;;;;8.57;4.95;;;;;;;;;;5049856;28;20422;-64
2022/07/20 03:36:40;;;;;;;10.18;5.20;;;;;;;;;;5049749;28;20063;-64
2022/07/20 03:39:06;;;;;;;10.60;5.00;;;;;;;;;;5046413;28;20091;-64
2022/07/20 03:41:32;;;;;;;7.95;5.22;;;;;;;;;;5043421;28;20182;-64
2022/07/20 03:43:58;;;;;;;7.20;4.85;;;;;;;;;;5052127;28;20029;-64
2022/07/20 03:46:24;;;;;;;10.32;5.13;;;;;;;;;;5052829;28;20512;-64
2022/07/20 03:48:50;;;;;;;5.78;4.47;;;;;;;;;;5045151;28;20032;-64
2022/07/20 03:51:16;;;;;;;6.45;4.97;;;;;;;;;;5049665;28;20049;-64
2022/07/20 03:53:42;;;;;;;6.13;4.55;;;;;;;;;;5051565;28;20041;-64
2022/07/20 03:56:08;;;;;;;8.00;4.53;;;;;;;;;;5049637;28;20073;-64
2022/07/20 03:58:34;;;;;;;7.57;4.60;;;;;;;;;;5048470;28;20426;-63
2022/07/20 04:01:00;;;;;;;10.32;5.45;;;;;;;;;;5050020;28;20116;-64
2022/07/20 04:03:26;;;;;;;6.88;4.47;;;;;;;;;;5049003;28;20037;-64
2022/07/20 04:05:52;;;;;;;7.93;5.10;;;;;;;;;;5051168;28;20425;-64
2022/07/20 04:08:18;;;;;;;6.72;4.65;;;;;;;;;;5047064;28;20044;-64
2022/07/20 04:10:44;;;;;;;7.25;4.85;;;;;;;;;;5051564;28;20047;-64
2022/07/20 04:13:10;;;;;;;10.68;4.60;;;;;;;;;;5049364;28;20032;-64
2022/07/20 04:15:36;;;;;;;7.20;4.85;;;;;;;;;;5052057;28;20621;-64
2022/07/20 04:18:02;;;;;;;8.32;5.13;;;;;;;;;;5048000;28;20180;-63
2022/07/20 04:20:28;;;;;;;7.47;5.00;;;;;;;;;;5050813;28;20072;-64
2022/07/20 04:22:54;;;;;;;8.95;4.60;;;;;;;;;;5051947;28;20068;-64
2022/07/20 04:25:22;;;;;;;8.13;5.25;;;;;;;;;;5050213;28;20140;-64
2022/07/20 04:27:49;;;;;;;5.88;4.75;;;;;;;;;;5050310;28;20114;-64
2022/07/20 04:30:16;;;;;;;9.18;4.55;;;;;;;;;;5047320;28;20514;-64
2022/07/20 04:32:42;;;;;;;8.75;4.40;;;;;;;;;;5049872;28;20086;-64
2022/07/20 04:35:09;;;;;;;6.60;4.80;;;;;;;;;;5034753;28;20049;-64
2022/07/20 04:37:35;;;;;;;8.27;5.32;;;;;;;;;;5045318;28;20407;-63
2022/07/20 04:40:02;;;;;;;7.43;5.22;;;;;;;;;;5052315;28;20069;-63
2022/07/20 04:42:28;;;;;;;6.38;4.90;;;;;;;;;;5049355;28;20044;-63
2022/07/20 04:44:54;;;;;;;6.88;5.07;;;;;;;;;;5048519;28;20041;-64
2022/07/20 04:47:20;;;;;;;7.63;4.55;;;;;;;;;;5049540;28;20033;-64
2022/07/20 04:49:46;;;;;;;9.07;4.70;;;;;;;;;;5044600;28;20044;-64
2022/07/20 04:52:12;;;;;;;7.70;4.72;;;;;;;;;;5048515;28;20037;-64
2022/07/20 04:54:38;;;;;;;9.75;4.70;;;;;;;;;;5049816;28;20507;-64
2022/07/20 04:57:04;;;;;;;10.05;4.88;;;;;;;;;;5047953;28;20110;-63
2022/07/20 04:59:30;;;;;;;5.80;4.68;;;;;;;;;;5035494;28;21904;-64
2022/07/20 05:01:56;;;;;;;6.28;4.80;;;;;;;;;;5024632;28;20444;-64
2022/07/20 05:04:23;;;;;;;8.43;5.13;;;;;;;;;;5042619;28;20053;-64
2022/07/20 05:06:49;;;;;;;6.50;4.38;;;;;;;;;;5042568;28;20045;-63
2022/07/20 05:09:14;;;;;;;7.60;5.05;;;;;;;;;;5047580;28;20418;-64
2022/07/20 05:11:40;;;;;;;7.80;5.50;;;;;;;;;;5049941;28;20037;-63
2022/07/20 05:14:08;;;;;;;7.00;4.90;;;;;;;;;;5047445;28;20037;-63
2022/07/20 05:16:34;;;;;;;11.15;5.00;;;;;;;;;;5030608;28;20517;-63
2022/07/20 05:19:00;;;;;;;6.70;4.57;;;;;;;;;;5046456;28;20041;-63
2022/07/20 05:21:27;;;;;;;6.40;4.75;;;;;;;;;;5048370;28;20549;-63
2022/07/20 05:23:53;;;;;;;8.85;4.78;;;;;;;;;;5051509;28;20665;-63
2022/07/20 05:26:19;;;;;;;5.70;4.43;;;;;;;;;;5049981;28;20040;-63
2022/07/20 05:28:44;;;;;;;7.28;4.75;;;;;;;;;;5048820;28;20033;-63
2022/07/20 05:31:13;;;;;;;10.60;5.40;;;;;;;;;;5046753;28;20119;-63
2022/07/20 05:33:40;;;;;;;8.93;4.90;;;;;;;;;;5048705;28;20094;-63
2022/07/20 05:36:06;;;;;;;9.85;4.63;;;;;;;;;;5051527;28;20482;-63
2022/07/20 05:38:32;;;;;;;9.90;5.05;;;;;;;;;;5042125;28;20106;-63
2022/07/20 05:40:58;;;;;;;9.65;5.18;;;;;;;;;;5050267;28;20094;-63
2022/07/20 05:43:24;;;;;;;6.90;5.20;;;;;;;;;;5049820;28;20076;-63
2022/07/20 05:45:50;;;;;;;5.68;5.18;;;;;;;;;;5047231;28;20033;-64
2022/07/20 05:48:16;;;;;;;7.00;4.28;;;;;;;;;;5029138;28;20036;-64
2022/07/20 05:50:42;;;;;;;7.45;5.00;;;;;;;;;;5049840;28;20529;-63
2022/07/20 05:53:09;;;;;;;9.23;4.82;;;;;;;;;;5031803;28;20083;-64
2022/07/20 05:55:35;;;;;;;6.07;4.47;;;;;;;;;;5050156;28;20068;-63
2022/07/20 05:58:02;;;;;;;8.60;4.90;;;;;;;;;;5047618;28;20041;-64
2022/07/20 06:00:28;;;;;;;7.30;5.40;;;;;;;;;;5045884;28;20037;-64
2022/07/20 06:02:54;;;;;;;9.05;5.03;;;;;;;;;;5048423;28;20040;-64
2022/07/20 06:05:20;;;;;;;6.93;5.10;;;;;;;;;;5048332;28;20120;-63
2022/07/20 06:07:46;;;;;;;10.05;5.03;;;;;;;;;;5050452;28;20040;-63
2022/07/20 06:10:13;;;;;;;8.65;4.90;;;;;;;;;;5049658;28;20037;-64
2022/07/20 06:12:39;;;;;;;6.47;4.47;;;;;;;;;;5048676;28;20041;-63
2022/07/20 06:15:05;;;;;;;9.93;4.80;;;;;;;;;;5050237;28;20056;-63
2022/07/20 06:17:35;;;;;;;8.00;4.85;;;;;;;;;;5048490;28;20133;-63
2022/07/20 06:20:02;;;;;;;6.35;4.78;;;;;;;;;;5032362;28;20049;-63
2022/07/20 06:22:28;;;;;;;7.03;5.40;;;;;;;;;;5049524;28;20072;-64
2022/07/20 06:24:54;;;;;;;8.57;5.05;;;;;;;;;;5048966;28;20029;-63
2022/07/20 06:27:20;;;;;;;7.47;4.93;;;;;;;;;;5027865;28;20044;-63
2022/07/20 06:29:46;;;;;;;8.70;4.90;;;;;;;;;;5042959;28;20099;-64
2022/07/20 06:32:12;;;;;;;9.98;4.70;;;;;;;;;;5046786;28;20056;-63
2022/07/20 06:34:38;;;;;;;6.38;4.57;;;;;;;;;;5042580;28;20350;-64
2022/07/20 06:37:04;;;;;;;7.15;4.70;;;;;;;;;;5048743;28;20036;-64
2022/07/20 06:39:30;;;;;;;8.55;5.18;;;;;;;;;;5048533;28;20049;-64
2022/07/20 06:41:56;;;;;;;7.97;4.50;;;;;;;;;;5050081;28;20037;-63
2022/07/20 06:44:22;;;;;;;6.80;4.82;;;;;;;;;;5050962;28;20045;-64
2022/07/20 06:46:49;;;;;;;8.13;5.05;;;;;;;;;;5038764;28;20486;-64
2022/07/20 06:49:15;;;;;;;8.30;4.90;;;;;;;;;;5046950;28;20068;-64
2022/07/20 06:51:41;;;;;;;7.40;5.10;;;;;;;;;;5046673;28;20078;-64
2022/07/20 06:54:07;;;;;;;8.27;4.50;;;;;;;;;;5046828;28;20044;-63
2022/07/20 06:56:33;;;;;;;9.82;4.85;;;;;;;;;;5049361;28;20086;-64
2022/07/20 06:58:59;;;;;;;6.97;4.88;;;;;;;;;;5047546;28;20041;-64
2022/07/20 07:01:25;;;;;;;5.90;4.20;;;;;;;;;;5046234;28;20037;-64
2022/07/20 07:03:51;;;;;;;7.00;4.80;;;;;;;;;;5046134;28;20112;-63
2022/07/20 07:06:17;;;;;;;6.30;4.65;;;;;;;;;;5047372;28;20037;-63
2022/07/20 07:08:44;;;;;;;7.60;4.93;;;;;;;;;;5046804;28;20046;-64
2022/07/20 07:11:10;;;;;;;7.78;4.95;;;;;;;;;;5047484;28;20439;-64
2022/07/20 07:13:36;;;;;;;9.35;5.22;;;;;;;;;;5050973;28;20395;-64
2022/07/20 07:16:02;;;;;;;5.18;4.57;;;;;;;;;;5049736;28;20037;-64
2022/07/20 07:18:28;;;;;;;7.13;4.70;;;;;;;;;;5052339;28;20037;-64
2022/07/20 07:20:54;;;;;;;12.85;5.85;;;;;;;;;;5051324;28;20029;-63
2022/07/20 07:23:20;;;;;;;12.18;6.47;;;;;;;;;;5048748;28;20056;-64
2022/07/20 07:25:46;;;;;;;7.53;5.50;;;;;;;;;;5049934;28;20068;-63
2022/07/20 07:28:12;;;;;;;10.80;5.72;;;;;;;;;;5052423;28;20738;-63
2022/07/20 07:30:38;;;;;;;9.20;5.88;;;;;;;;;;5053727;28;20036;-64
2022/07/20 07:33:04;;;;;;;11.00;6.53;;;;;;;;;;5053426;28;20043;-63
2022/07/20 07:35:30;;;;;;;8.38;5.75;;;;;;;;;;5033373;28;20513;-63
2022/07/20 07:37:56;;;;;;;9.85;6.70;;;;;;;;;;5049510;28;20036;-64
2022/07/20 07:40:22;;;;;;;9.13;6.30;;;;;;;;;;5049855;28;20041;-64
2022/07/20 07:42:48;;;;;;;9.38;6.55;;;;;;;;;;5043466;28;20067;-64
2022/07/20 07:45:14;;;;;;;11.30;6.53;;;;;;;;;;5044404;28;20084;-64
2022/07/20 07:47:41;;;;;;;10.98;7.60;;;;;;;;;;5045020;28;20465;-63
2022/07/20 07:50:07;;;;;;;11.35;7.10;;;;;;;;;;5030300;28;20041;-64
2022/07/20 07:52:33;;;;;;;10.18;7.18;;;;;;;;;;5046493;28;20055;-63
2022/07/20 07:54:59;;;;;;;12.95;7.35;;;;;;;;;;5034653;28;20124;-64
2022/07/20 07:57:25;;;;;;;13.05;7.90;;;;;;;;;;5048261;28;20547;-64
2022/07/20 07:59:51;;;;;;;14.25;8.23;;;;;;;;;;5046294;28;20391;-64
2022/07/20 08:02:17;;;;;;;13.52;8.75;;;;;;;;;;5049279;28;20455;-64
2022/07/20 08:04:43;;;;;;;11.55;9.32;;;;;;;;;;5034218;28;20398;-65
2022/07/20 08:07:09;;;;;;;15.57;9.57;;;;;;;;;;5028257;28;20041;-64
2022/07/20 08:09:35;;;;;;;17.17;10.60;;;;;;;;;;5042592;28;20068;-64
2022/07/20 08:12:02;;;;;;;18.38;10.20;;;;;;;;;;5034660;28;20045;-64
2022/07/20 08:14:28;;;;;;;15.93;10.32;;;;;;;;;;5052431;28;20110;-64
2022/07/20 08:16:54;;;;;;;17.15;11.45;;;;;;;;;;5052042;28;20094;-64
2022/07/20 08:19:20;;;;;;;20.55;12.30;;;;;;;;;;5048035;28;20037;-64
2022/07/20 08:21:46;;;;;;;21.27;14.73;;;;;;;;;;5048467;28;20029;-64
2022/07/20 08:24:14;;;;;;;25.05;14.75;;;;;;;;;;5033077;28;20041;-64
2022/07/20 08:26:40;;;;;;;18.52;14.10;;;;;;;;;;5034311;28;20560;-64
2022/07/20 08:29:06;;;;;;;20.13;17.45;;;;;;;;;;5048592;28;20166;-64
2022/07/20 08:31:32;;;;;;;25.10;16.85;;;;;;;;;;5056395;22;20057;-65
2022/07/20 08:33:58;;;;;;;25.45;16.55;;;;;;;;;;5024126;28;20034;-65
2022/07/20 08:36:24;;;;;;;25.50;17.25;;;;;;;;;;5028140;28;20045;-65
2022/07/20 08:38:50;;;;;;;23.60;17.88;;;;;;;;;;5028561;28;20056;-64
2022/07/20 08:41:16;;;;;;;25.15;17.95;;;;;;;;;;5018733;28;20045;-63
2022/07/20 08:43:42;;;;;;;24.92;17.83;;;;;;;;;;5014363;28;20040;-65
2022/07/20 08:46:08;;;;;;;27.40;17.85;;;;;;;;;;5001394;28;20141;-62
2022/07/20 08:48:35;;;;;;;27.83;18.52;;;;;;;;;;5023666;28;20038;-63
2022/07/20 08:51:01;;;;;;;26.63;18.55;;;;;;;;;;5013524;28;20091;-62
2022/07/20 08:53:27;;;;;;;25.77;18.80;;;;;;;;;;5023448;28;20120;-62
2022/07/20 08:55:53;;;;;;;28.77;19.52;;;;;;;;;;5014458;28;20744;-62
2022/07/20 08:58:19;;;;;;;24.50;18.70;;;;;;;;;;5007662;28;20389;-65
2022/07/20 09:00:45;;;;;;;28.10;18.05;;;;;;;;;;5012401;28;20036;-65
2022/07/20 09:03:12;;;;;;;27.38;18.00;;;;;;;;;;5012697;28;20034;-65
2022/07/20 09:05:40;;;;;;;26.13;18.58;;;;;;;;;;5014375;28;20395;-64
2022/07/20 09:08:07;;;;;;;28.05;18.88;;;;;;;;;;5026327;28;20125;-65
2022/07/20 09:10:37;;;;;;;26.02;18.65;;;;;;;;;;5017917;28;20100;-64
2022/07/20 09:13:03;;;;;;;;;;;;;;;;;;5023688;28;20033;-65
2022/07/20 09:15:29;;;;;;;24.52;18.52;;;;;;;;;;5007842;28;19963;-64
2022/07/20 09:18:02;;;;;;;29.42;19.77;;;;;;;;;;5016505;28;20435;-65
2022/07/20 09:20:29;;;;;;;31.38;21.65;;;;;;;;;;5013371;28;20041;-65
2022/07/20 09:23:00;;;;;;;30.30;21.52;;;;;;;;;;5017292;28;20076;-65
2022/07/20 09:25:26;;;;;;;27.85;22.02;;;;;;;;;;5019656;28;20153;-65
2022/07/20 09:27:52;;;;;;;34.50;24.40;;;;;;;;;;5023821;28;20040;-64
2022/07/20 09:30:18;;;;;;;31.65;22.77;;;;;;;;;;5007416;28;20073;-65
2022/07/20 09:32:52;;;;;;;33.20;23.35;;;;;;;;;;5016557;28;20065;-65
2022/07/20 09:35:19;;;;;;;31.63;23.85;;;;;;;;;;5007770;28;20038;-64
2022/07/20 09:37:45;;;;;;;30.58;24.45;;;;;;;;;;5020591;28;20045;-65
2022/07/20 09:40:11;;;;;;;30.85;24.25;;;;;;;;;;5011307;28;20050;-65
2022/07/20 09:42:37;;;;;;;32.90;23.40;;;;;;;;;;5018043;28;20387;-65
2022/07/20 09:45:20;;;;;;;30.23;23.13;;;;;;;;;;5004319;28;20419;-64
2022/07/20 09:48:02;;;;;;;31.00;22.88;;;;;;;;;;5004182;28;20415;-64
2022/07/20 09:50:31;;;;;;;34.42;21.83;;;;;;;;;;5007321;28;20034;-64
2022/07/20 09:52:57;;;;;;;33.50;21.67;;;;;;;;;;5009966;28;20092;-65
2022/07/20 09:55:25;;;;;;;28.65;21.35;;;;;;;;;;5013080;28;20840;-64
2022/07/20 09:57:51;;;;;;;30.23;19.88;;;;;;;;;;5000099;28;20042;-64
2022/07/20 10:00:18;;;;;;;29.25;20.30;;;;;;;;;;5010123;28;20038;-64
2022/07/20 10:02:48;;;;;;;26.13;19.88;;;;;;;;;;5015070;28;20042;-64
2022/07/20 10:05:15;;;;;;;25.92;19.63;;;;;;;;;;5019469;28;20373;-64
2022/07/20 10:07:42;;;;;;;26.98;18.45;;;;;;;;;;5008151;28;20045;-64
2022/07/20 10:10:08;;;;;;;23.20;19.13;;;;;;;;;;5006358;28;20041;-64
2022/07/20 10:12:34;;;;;;;24.35;18.55;;;;;;;;;;5018508;28;20634;-65
2022/07/20 10:15:01;;;;;;;23.58;17.88;;;;;;;;;;5011049;28;20038;-64
2022/07/20 10:17:30;;;;;;;20.48;17.13;;;;;;;;;;5009293;28;20050;-64
2022/07/20 10:19:57;;;;;;;22.80;17.70;;;;;;;;;;5011537;28;20045;-65
2022/07/20 10:22:23;;;;;;;21.80;17.52;;;;;;;;;;5009401;28;20038;-64
2022/07/20 10:25:08;;;;;;;25.45;18.23;;;;;;;;;;5013048;28;20666;-64
2022/07/20 10:27:36;;;;;;;20.25;16.80;;;;;;;;;;5013688;28;20399;-65
2022/07/20 10:30:15;;;;;;;21.63;15.75;;;;;;;;;;5010126;28;20081;-64
2022/07/20 10:32:51;;;;;;;19.85;14.63;;;;;;;;;;5003658;28;20380;-64
2022/07/20 10:35:28;;;;;;;19.95;14.55;;;;;;;;;;5008668;28;20033;-65
2022/07/20 10:37:55;;;;;;;20.15;15.05;;;;;;;;;;5012125;28;20442;-64
2022/07/20 10:40:25;;;;;;;21.58;15.00;;;;;;;;;;5011553;28;20078;-65
2022/07/20 10:42:55;;;;;;;20.83;15.25;;;;;;;;;;5019309;28;20034;-65
2022/07/20 10:45:23;;;;;;;18.95;14.32;;;;;;;;;;5012658;28;20037;-65
2022/07/20 10:47:50;;;;;;;17.73;14.25;;;;;;;;;;5013285;28;20113;-65
2022/07/20 10:50:16;;;;;;;19.25;13.43;;;;;;;;;;5010411;28;20125;-65
2022/07/20 10:52:42;;;;;;;18.85;13.75;;;;;;;;;;5006959;28;20126;-64
2022/07/20 10:55:28;;;;;;;22.17;13.45;;;;;;;;;;5009329;28;20485;-65
2022/07/20 10:57:54;;;;;;;18.05;12.63;;;;;;;;;;5010451;28;20053;-65
2022/07/20 11:00:20;;;;;;;18.77;13.40;;;;;;;;;;5014121;28;20400;-65
2022/07/20 11:02:46;;;;;;;15.63;11.30;;;;;;;;;;5026342;28;20048;-64
2022/07/20 11:05:20;;;;;;;15.07;11.90;;;;;;;;;;5031321;28;20040;-64
2022/07/20 11:07:46;;;;;;;17.35;11.32;;;;;;;;;;5011347;28;20054;-64
2022/07/20 11:10:20;;;;;;;18.13;11.73;;;;;;;;;;5010646;28;20121;-64
2022/07/20 11:12:57;;;;;;;18.52;11.38;;;;;;;;;;5016376;28;20069;-64
2022/07/20 11:15:23;;;;;;;14.02;11.00;;;;;;;;;;5022657;28;22111;-64
2022/07/20 11:17:49;;;;;;;18.17;11.45;;;;;;;;;;5009963;28;20068;-64
2022/07/20 11:20:18;;;;;;;15.77;11.50;;;;;;;;;;5011644;28;20127;-64
2022/07/20 11:22:44;;;;;;;15.15;10.85;;;;;;;;;;5025541;28;20037;-64
2022/07/20 11:25:11;;;;;;;18.55;10.90;;;;;;;;;;5023387;28;20116;-64
2022/07/20 11:27:37;;;;;;;12.63;9.98;;;;;;;;;;5021310;28;20065;-64
2022/07/20 11:30:03;;;;;;;14.23;10.10;;;;;;;;;;5013422;28;20065;-64
2022/07/20 11:32:29;;;;;;;15.55;9.93;;;;;;;;;;5008241;28;20048;-65
2022/07/20 11:34:55;;;;;;;15.63;10.60;;;;;;;;;;5020897;28;20030;-64
2022/07/20 11:37:22;;;;;;;14.73;9.73;;;;;;;;;;5011160;28;20042;-64
2022/07/20 11:39:48;;;;;;;13.10;9.98;;;;;;;;;;5011938;28;20451;-64
2022/07/20 11:42:15;;;;;;;15.00;9.40;;;;;;;;;;5008726;28;20037;-63
2022/07/20 11:44:42;;;;;;;12.52;9.20;;;;;;;;;;5008202;28;20088;-64
2022/07/20 11:47:09;;;;;;;15.45;9.68;;;;;;;;;;5021562;28;20029;-64
2022/07/20 11:49:35;;;;;;;12.02;9.35;;;;;;;;;;5015213;28;20068;-64
2022/07/20 11:52:05;;;;;;;12.57;8.93;;;;;;;;;;5024104;28;20041;-64
2022/07/20 11:54:37;;;;;;;12.27;8.85;;;;;;;;;;5032401;28;20038;-64
2022/07/20 11:57:04;;;;;;;14.55;9.20;;;;;;;;;;5027086;28;20044;-64
2022/07/20 11:59:30;;;;;;;11.98;8.38;;;;;;;;;;5016159;28;20411;-64
2022/07/20 12:01:57;;;;;;;12.68;8.70;;;;;;;;;;5019128;28;20085;-63
2022/07/20 12:04:24;;;;;;;13.15;8.85;;;;;;;;;;5014103;28;20046;-64
2022/07/20 12:06:55;;;;;;;12.65;8.50;;;;;;;;;;5018043;28;20507;-64
2022/07/20 12:09:22;;;;;;;10.63;8.10;;;;;;;;;;5014627;28;20045;-64
2022/07/20 12:12:07;;;;;;;13.40;8.70;;;;;;;;;;5019830;28;20127;-64
2022/07/20 12:14:36;;;;;;;11.43;7.72;;;;;;;;;;5013674;28;20539;-64
2022/07/20 12:17:11;;;;;;;11.73;7.85;;;;;;;;;;5030168;28;20034;-64
2022/07/20 12:19:38;;;;;;;8.85;7.32;;;;;;;;;;5008387;28;20396;-64
2022/07/20 12:22:04;;;;;;;10.98;7.90;;;;;;;;;;5021819;28;20407;-64
2022/07/20 12:24:30;;;;;;;10.88;7.47;;;;;;;;;;5033164;28;20033;-64
2022/07/20 12:27:05;;;;;;;9.07;7.65;;;;;;;;;;5027064;28;20159;-64
2022/07/20 12:29:31;;;;;;;13.88;7.63;;;;;;;;;;5015017;28;20491;-64
2022/07/20 12:31:57;;;;;;;9.25;7.40;;;;;;;;;;5024967;28;20609;-64
2022/07/20 12:34:23;;;;;;;10.85;7.85;;;;;;;;;;5030885;28;20093;-64
2022/07/20 12:36:50;;;;;;;15.52;7.20;;;;;;;;;;5012546;28;20048;-64
2022/07/20 12:39:35;;;;;;;10.05;7.05;;;;;;;;;;5014010;28;20563;-64
2022/07/20 12:42:22;;;;;;;8.00;6.53;;;;;;;;;;5025222;28;20033;-64
2022/07/20 12:44:57;;;;;;;9.60;6.78;;;;;;;;;;5032838;28;20118;-64
2022/07/20 12:47:23;;;;;;;10.73;6.75;;;;;;;;;;5025646;28;20049;-64
2022/07/20 12:49:49;;;;;;;9.90;6.70;;;;;;;;;;5025209;28;20041;-64
2022/07/20 12:52:15;;;;;;;8.73;6.63;;;;;;;;;;5022387;28;20392;-64
2022/07/20 12:54:41;;;;;;;10.57;7.07;;;;;;;;;;5015482;28;20041;-65
2022/07/20 12:57:07;;;;;;;10.60;6.82;;;;;;;;;;5017185;28;20045;-64
2022/07/20 12:59:33;;;;;;;11.20;7.18;;;;;;;;;;5012316;28;20068;-64
2022/07/20 13:01:59;;;;;;;7.47;6.70;;;;;;;;;;5012675;28;20502;-64
2022/07/20 13:04:25;;;;;;;8.38;6.65;;;;;;;;;;5010205;28;20033;-64
2022/07/20 13:06:52;;;;;;;8.07;5.53;;;;;;;;;;5012829;28;20052;-64
2022/07/20 13:09:19;;;;;;;7.05;5.55;;;;;;;;;;5011192;28;20045;-64
2022/07/20 13:11:46;;;;;;;7.18;5.47;;;;;;;;;;5012917;28;20535;-64
2022/07/20 13:14:13;;;;;;;8.15;6.07;;;;;;;;;;5004126;28;20049;-64
2022/07/20 13:16:39;;;;;;;8.82;5.70;;;;;;;;;;5006397;28;20510;-63
2022/07/20 13:19:05;;;;;;;6.60;5.68;;;;;;;;;;5006069;28;20042;-64
2022/07/20 13:21:31;;;;;;;8.82;6.03;;;;;;;;;;5003786;28;20038;-63
2022/07/20 13:23:57;;;;;;;6.60;5.82;;;;;;;;;;5009647;28;20038;-63
2022/07/20 13:26:23;;;;;;;9.02;6.63;;;;;;;;;;5009942;28;20073;-64
2022/07/20 13:28:49;;;;;;;9.77;5.97;;;;;;;;;;5003045;28;20048;-63
2022/07/20 13:31:15;;;;;;;6.85;5.85;;;;;;;;;;5018945;28;20129;-64
2022/07/20 13:33:42;;;;;;;6.65;4.68;;;;;;;;;;5012997;28;20124;-63
2022/07/20 13:36:08;;;;;;;9.18;5.63;;;;;;;;;;5018029;28;20519;-63
2022/07/20 13:38:35;;;;;;;5.88;4.95;;;;;;;;;;5008678;28;20052;-63
2022/07/20 13:41:01;;;;;;;6.22;4.60;;;;;;;;;;5002886;28;20089;-63
2022/07/20 13:43:28;;;;;;;11.27;5.18;;;;;;;;;;5005665;28;20443;-63
2022/07/20 13:45:54;;;;;;;6.45;5.13;;;;;;;;;;5005377;28;20083;-63
2022/07/20 13:48:20;;;;;;;4.93;4.00;;;;;;;;;;5002690;28;20443;-63
2022/07/20 13:50:48;;;;;;;5.53;4.38;;;;;;;;;;5005833;28;20037;-64
2022/07/20 13:53:14;;;;;;;5.53;3.70;;;;;;;;;;5010654;28;20065;-64
2022/07/20 13:55:40;;;;;;;3.90;3.35;;;;;;;;;;5011765;28;20567;-64
2022/07/20 13:58:07;;;;;;;6.18;4.20;;;;;;;;;;5008025;28;20038;-64
2022/07/20 14:00:33;;;;;;;6.72;4.47;;;;;;;;;;5015843;28;20483;-63
2022/07/20 14:02:59;;;;;;;5.35;4.10;;;;;;;;;;5008037;28;20034;-64
2022/07/20 14:05:26;;;;;;;6.07;4.65;;;;;;;;;;5010599;28;20130;-64
2022/07/20 14:07:52;;;;;;;5.82;4.90;;;;;;;;;;5008991;28;20044;-64
2022/07/20 14:10:18;;;;;;;6.90;5.38;;;;;;;;;;5000005;28;20042;-64
2022/07/20 14:12:44;;;;;;;6.97;5.10;;;;;;;;;;5002341;28;20042;-64
2022/07/20 14:15:10;;;;;;;8.15;5.18;;;;;;;;;;5003192;28;20046;-64
2022/07/20 14:17:38;;;;;;;7.72;5.45;;;;;;;;;;5008670;28;20070;-64
2022/07/20 14:20:05;;;;;;;7.75;5.47;;;;;;;;;;5014715;28;20404;-64
2022/07/20 14:22:31;;;;;;;8.68;5.47;;;;;;;;;;5009684;28;20042;-64
2022/07/20 14:24:57;;;;;;;6.68;5.05;;;;;;;;;;5005899;28;20034;-64
2022/07/20 14:27:23;;;;;;;8.00;5.80;;;;;;;;;;5010961;28;20077;-64
2022/07/20 14:29:49;;;;;;;11.95;6.00;;;;;;;;;;5006155;28;20073;-64
2022/07/20 14:32:15;;;;;;;9.30;5.97;;;;;;;;;;5042275;22;20121;-62
2022/07/20 14:34:41;;;;;;;6.53;5.47;;;;;;;;;;5026129;28;20130;-63
2022/07/20 14:37:09;;;;;;;8.80;5.38;;;;;;;;;;5021912;28;20030;-63